createdAt,value
2019-02-04T00:01:10.336Z,101128.14
2019-02-04T00:03:40.072Z,101132.20
2019-02-04T00:06:10.160Z,101143.19
2019-02-04T00:08:39.487Z,101150.11
2019-02-04T00:11:08.812Z,101154.44
2019-02-04T00:13:38.457Z,101162.76
2019-02-04T00:16:08.208Z,101162.70
2019-02-04T00:18:37.887Z,101163.45
2019-02-04T00:21:07.203Z,101166.17
2019-02-04T00:23:36.884Z,101173.25
2019-02-04T00:26:06.215Z,101173.48
2019-02-04T00:28:35.890Z,101177.52
2019-02-04T00:31:05.381Z,101181.97
2019-02-04T00:33:34.816Z,101186.82
2019-02-04T00:36:04.167Z,101193.41
2019-02-04T00:38:33.467Z,101198.16
2019-02-04T00:41:02.791Z,101204.19
2019-02-04T00:43:32.139Z,101216.51
2019-02-04T00:46:01.543Z,101212.69
2019-02-04T00:48:31.225Z,101222.56
2019-02-04T00:51:00.570Z,101229.50
2019-02-04T00:53:29.922Z,101229.50
2019-02-04T00:55:59.343Z,101240.11
2019-02-04T00:58:28.680Z,101245.38
2019-02-04T01:00:58.005Z,101245.70
2019-02-04T01:03:27.719Z,101250.38
2019-02-04T01:05:57.030Z,101257.31
2019-02-04T01:08:26.747Z,101267.28
2019-02-04T01:10:56.083Z,101261.57
2019-02-04T01:13:25.407Z,101274.45
2019-02-04T01:15:55.049Z,101284.39
2019-02-04T01:18:24.773Z,101279.61
2019-02-04T01:20:54.480Z,101288.94
2019-02-04T01:23:24.185Z,101287.94
2019-02-04T01:25:53.520Z,101294.58
2019-02-04T01:28:22.853Z,101301.89
2019-02-04T01:30:52.757Z,101302.50
2019-02-04T01:33:22.130Z,101310.34
2019-02-04T01:35:51.800Z,101315.70
2019-02-04T01:38:21.479Z,101319.62
2019-02-04T01:40:51.128Z,101327.34
2019-02-04T01:43:20.460Z,101331.38
2019-02-04T01:45:50.343Z,101332.73
2019-02-04T01:48:19.957Z,101334.70
2019-02-04T01:50:49.305Z,101344.67
2019-02-04T01:53:18.965Z,101348.20
2019-02-04T01:55:48.309Z,101353.73
2019-02-04T01:58:17.676Z,101353.99
2019-02-04T02:00:47.365Z,101360.45
2019-02-04T02:03:16.698Z,101359.84
2019-02-04T02:05:46.425Z,101361.96
2019-02-04T02:08:15.747Z,101359.97
2019-02-04T02:10:45.325Z,101361.06
2019-02-04T02:13:15.399Z,101362.53
2019-02-04T02:15:45.124Z,101363.98
2019-02-04T02:18:14.465Z,101364.84
2019-02-04T02:20:43.817Z,101365.69
2019-02-04T02:23:13.146Z,101368.77
2019-02-04T02:25:42.777Z,101371.80
2019-02-04T02:28:12.452Z,101370.88
2019-02-04T02:30:41.739Z,101369.06
2019-02-04T02:33:11.426Z,101370.26
2019-02-04T02:35:41.036Z,101377.77
2019-02-04T02:38:10.640Z,101378.23
2019-02-04T02:40:40.472Z,101378.23
2019-02-04T02:43:11.689Z,101379.40
2019-02-04T02:45:41.623Z,101383.07
2019-02-04T02:48:10.940Z,101384.09
2019-02-04T02:50:40.269Z,101387.83
2019-02-04T02:53:09.608Z,101385.66
2019-02-04T02:55:39.301Z,101387.27
2019-02-04T02:58:08.618Z,101389.29
2019-02-04T03:00:38.246Z,101392.56
2019-02-04T03:03:07.604Z,101391.00
2019-02-04T03:05:36.965Z,101397.51
2019-02-04T03:08:06.666Z,101392.66
2019-02-04T03:10:36.014Z,101393.42
2019-02-04T03:13:05.671Z,101394.45
2019-02-04T03:15:35.002Z,101401.05
2019-02-04T03:18:04.351Z,101403.31
2019-02-04T03:20:33.682Z,101407.74
2019-02-04T03:23:03.030Z,101414.05
2019-02-04T03:25:51.791Z,101419.80
2019-02-04T03:28:21.541Z,101415.77
2019-02-04T03:30:51.074Z,101424.48
2019-02-04T03:33:20.386Z,101432.25
2019-02-04T03:35:49.723Z,101431.80
2019-02-04T03:38:19.050Z,101435.38
2019-02-04T03:40:48.396Z,101443.65
2019-02-04T03:43:17.817Z,101448.44
2019-02-04T03:45:47.454Z,101447.98
2019-02-04T03:48:17.175Z,101444.95
2019-02-04T03:50:46.546Z,101454.09
2019-02-04T03:53:16.040Z,101455.39
2019-02-04T03:55:45.679Z,101464.66
2019-02-04T03:58:15.024Z,101467.79
2019-02-04T04:00:44.367Z,101477.59
2019-02-04T04:03:13.712Z,101484.55
2019-02-04T04:05:43.112Z,101486.31
2019-02-04T04:08:12.820Z,101486.68
2019-02-04T04:10:42.275Z,101490.91
2019-02-04T04:13:11.591Z,101493.33
2019-02-04T04:15:41.129Z,101495.95
2019-02-04T04:18:15.881Z,101499.38
2019-02-04T04:20:42.134Z,101500.39
2019-02-04T04:23:11.488Z,101497.00
2019-02-04T04:25:41.169Z,101499.88
2019-02-04T04:28:10.959Z,101506.60
2019-02-04T04:30:40.575Z,101505.09
2019-02-04T04:33:10.296Z,101510.19
2019-02-04T04:35:39.983Z,101514.38
2019-02-04T04:38:09.321Z,101513.61
2019-02-04T04:40:38.994Z,101516.94
2019-02-04T04:43:08.348Z,101520.38
2019-02-04T04:45:37.993Z,101524.56
2019-02-04T04:48:07.609Z,101527.88
2019-02-04T04:50:36.930Z,101535.67
2019-02-04T04:53:06.630Z,101537.06
2019-02-04T04:55:35.944Z,101536.52
2019-02-04T04:58:05.286Z,101537.73
2019-02-04T05:00:34.930Z,101544.35
2019-02-04T05:03:04.366Z,101544.69
2019-02-04T05:05:34.135Z,101550.25
2019-02-04T05:08:03.763Z,101552.91
2019-02-04T05:10:33.471Z,101554.04
2019-02-04T05:13:03.378Z,101553.98
2019-02-04T05:15:32.743Z,101548.83
2019-02-04T05:18:02.073Z,101551.50
2019-02-04T05:20:31.415Z,101554.63
2019-02-04T05:23:01.086Z,101557.41
2019-02-04T05:25:30.414Z,101560.34
2019-02-04T05:28:00.089Z,101563.72
2019-02-04T05:30:29.697Z,101567.30
2019-02-04T05:32:59.084Z,101573.50
2019-02-04T05:35:28.921Z,101567.14
2019-02-04T05:37:58.245Z,101569.41
2019-02-04T05:40:27.936Z,101571.92
2019-02-04T05:42:57.288Z,101572.42
2019-02-04T05:45:26.602Z,101568.36
2019-02-04T05:47:55.970Z,101574.49
2019-02-04T05:50:25.759Z,101575.92
2019-02-04T05:52:55.097Z,101581.36
2019-02-04T05:55:25.032Z,101583.92
2019-02-04T05:57:54.713Z,101577.27
2019-02-04T06:00:34.376Z,101584.91
2019-02-04T06:03:03.731Z,101584.51
2019-02-04T06:05:34.282Z,101589.26
2019-02-04T06:08:04.462Z,101591.48
2019-02-04T06:10:34.155Z,101597.38
2019-02-04T06:13:03.541Z,101594.06
2019-02-04T06:15:33.152Z,101596.03
2019-02-04T06:18:02.613Z,101596.13
2019-02-04T06:20:32.047Z,101603.80
2019-02-04T06:23:01.728Z,101600.22
2019-02-04T06:25:31.350Z,101602.78
2019-02-04T06:28:00.942Z,101602.02
2019-02-04T06:30:30.572Z,101610.05
2019-02-04T06:32:59.995Z,101609.14
2019-02-04T06:35:30.217Z,101605.66
2019-02-04T06:37:59.543Z,101610.00
2019-02-04T06:40:28.875Z,101614.08
2019-02-04T06:42:58.191Z,101620.78
2019-02-04T06:45:27.518Z,101625.60
2019-02-04T06:47:57.140Z,101627.97
2019-02-04T06:50:26.635Z,101632.79
2019-02-04T06:52:56.060Z,101632.70
2019-02-04T06:55:29.814Z,101639.44
2019-02-04T06:57:59.367Z,101633.73
2019-02-04T07:00:28.707Z,101639.52
2019-02-04T07:02:58.468Z,101639.52
2019-02-04T07:05:27.748Z,101642.55
2019-02-04T07:07:57.076Z,101652.38
2019-02-04T07:10:29.396Z,101657.29
2019-02-04T07:12:59.003Z,101661.17
2019-02-04T07:15:28.601Z,101670.08
2019-02-04T07:18:01.879Z,101667.33
2019-02-04T07:20:29.433Z,101670.42
2019-02-04T07:22:58.825Z,101678.87
2019-02-04T07:25:28.422Z,101683.27
2019-02-04T07:27:59.615Z,101686.94
2019-02-04T07:30:29.300Z,101684.95
2019-02-04T07:32:58.867Z,101685.46
2019-02-04T07:35:28.198Z,101684.60
2019-02-04T07:37:57.547Z,101688.23
2019-02-04T07:40:34.521Z,101690.51
2019-02-04T07:43:03.970Z,101687.69
2019-02-04T07:45:34.182Z,101661.98
2019-02-04T07:48:03.501Z,101687.23
2019-02-04T07:50:32.829Z,101687.46
2019-02-04T07:53:02.177Z,101695.25
2019-02-04T07:55:31.810Z,101692.37
2019-02-04T07:58:01.209Z,101692.48
2019-02-04T08:00:33.607Z,101691.57
2019-02-04T08:03:02.938Z,101692.77
2019-02-04T08:05:32.330Z,101702.22
2019-02-04T08:08:01.977Z,101698.19
2019-02-04T08:10:31.339Z,101697.64
2019-02-04T08:13:02.081Z,101702.14
2019-02-04T08:15:35.373Z,101702.48
2019-02-04T08:18:05.663Z,101703.95
2019-02-04T08:20:35.231Z,101707.65
2019-02-04T08:23:04.549Z,101709.22
2019-02-04T08:25:33.906Z,101715.02
2019-02-04T08:28:03.238Z,101716.33
2019-02-04T08:30:37.942Z,101717.43
2019-02-04T08:33:06.565Z,101728.94
2019-02-04T08:35:36.150Z,101715.66
2019-02-04T08:38:05.465Z,101730.97
2019-02-04T08:40:35.447Z,101723.19
2019-02-04T08:43:05.077Z,101730.25
2019-02-04T08:45:34.565Z,101732.58
2019-02-04T08:48:03.878Z,101735.66
2019-02-04T08:50:33.530Z,101732.33
2019-02-04T08:53:02.886Z,101737.13
2019-02-04T08:55:32.198Z,101743.80
2019-02-04T08:58:01.625Z,101749.06
2019-02-04T09:00:31.257Z,101746.09
2019-02-04T09:03:00.905Z,101744.56
2019-02-04T09:05:30.276Z,101756.67
2019-02-04T09:07:59.854Z,101755.64
2019-02-04T09:10:32.366Z,101759.60
2019-02-04T09:13:02.032Z,101729.13
2019-02-04T09:15:31.360Z,101763.95
2019-02-04T09:18:01.088Z,101769.83
2019-02-04T09:20:30.717Z,101770.84
2019-02-04T09:23:00.409Z,101770.48
2019-02-04T09:25:29.813Z,101767.95
2019-02-04T09:27:59.515Z,101768.81
2019-02-04T09:30:29.657Z,101776.69
2019-02-04T09:33:01.934Z,101768.87
2019-02-04T09:35:31.269Z,101768.46
2019-02-04T09:38:00.867Z,101760.30
2019-02-04T09:40:43.106Z,101753.34
2019-02-04T09:43:12.427Z,101773.39
2019-02-04T09:45:42.321Z,101779.28
2019-02-04T09:48:16.741Z,101782.97
2019-02-04T09:50:50.591Z,101784.78
2019-02-04T09:53:20.228Z,101784.78
2019-02-04T09:55:49.601Z,101781.36
2019-02-04T09:58:19.183Z,101786.16
2019-02-04T10:00:48.810Z,101788.16
2019-02-04T10:03:18.420Z,101788.80
2019-02-04T10:05:48.039Z,101787.23
2019-02-04T10:08:17.663Z,101787.28
2019-02-04T10:10:47.326Z,101785.89
2019-02-04T10:13:16.888Z,101783.00
2019-02-04T10:15:46.371Z,101785.83
2019-02-04T10:18:15.714Z,101796.22
2019-02-04T10:20:45.050Z,101801.78
2019-02-04T10:23:14.552Z,101793.13
2019-02-04T10:25:44.834Z,101791.20
2019-02-04T10:28:16.226Z,101789.27
2019-02-04T10:30:46.059Z,101790.95
2019-02-04T10:33:15.879Z,101792.72
2019-02-04T10:35:45.216Z,101782.22
2019-02-04T10:38:16.469Z,101782.44
2019-02-04T10:40:45.680Z,101771.77
2019-02-04T10:43:15.357Z,101770.70
2019-02-04T10:45:44.736Z,101768.92
2019-02-04T10:48:14.095Z,101769.39
2019-02-04T10:50:46.600Z,101767.45
2019-02-04T10:53:15.008Z,101758.20
2019-02-04T10:55:44.564Z,101757.88
2019-02-04T10:58:14.625Z,101754.42
2019-02-04T11:00:44.619Z,101756.07
2019-02-04T11:03:14.014Z,101749.14
2019-02-04T11:05:44.378Z,101755.23
2019-02-04T11:08:14.990Z,101753.89
2019-02-04T11:10:44.791Z,101750.70
2019-02-04T11:13:16.607Z,101745.45
2019-02-04T11:15:46.163Z,101760.28
2019-02-04T11:18:15.605Z,101763.44
2019-02-04T11:20:57.170Z,101758.25
2019-02-04T11:23:16.846Z,101756.00
2019-02-04T11:25:46.342Z,101749.58
2019-02-04T11:28:16.221Z,101748.34
2019-02-04T11:30:53.366Z,101748.31
2019-02-04T11:33:22.867Z,101748.38
2019-02-04T11:35:52.641Z,101745.70
2019-02-04T11:38:22.077Z,101751.69
2019-02-04T11:40:51.921Z,101744.87
2019-02-04T11:43:21.270Z,101739.00
2019-02-04T11:45:50.620Z,101750.12
2019-02-04T11:48:20.083Z,101759.73
2019-02-04T11:50:49.488Z,101755.58
2019-02-04T11:53:18.783Z,101755.48
2019-02-04T11:55:48.628Z,101763.70
2019-02-04T11:58:18.216Z,101769.34
2019-02-04T12:00:47.568Z,101772.64
2019-02-04T12:03:17.144Z,101767.59
2019-02-04T12:05:46.728Z,101775.16
2019-02-04T12:08:16.350Z,101776.60
2019-02-04T12:10:52.944Z,101772.42
2019-02-04T12:13:22.637Z,101775.91
2019-02-04T12:15:53.130Z,101763.62
2019-02-04T12:18:22.452Z,101772.36
2019-02-04T12:20:52.043Z,101773.63
2019-02-04T12:23:21.628Z,101767.17
2019-02-04T12:25:50.948Z,101765.50
2019-02-04T12:28:20.269Z,101763.45
2019-02-04T12:30:49.835Z,101762.80
2019-02-04T12:33:19.424Z,101765.36
2019-02-04T12:35:49.015Z,101759.94
2019-02-04T12:38:18.624Z,101757.31
2019-02-04T12:40:47.934Z,101762.13
2019-02-04T12:43:17.239Z,101767.31
2019-02-04T12:45:46.849Z,101769.19
2019-02-04T12:48:16.428Z,101762.95
2019-02-04T12:50:46.041Z,101760.95
2019-02-04T12:53:15.525Z,101761.02
2019-02-04T12:55:45.100Z,101754.52
2019-02-04T12:58:14.686Z,101749.66
2019-02-04T13:00:44.015Z,101753.95
2019-02-04T13:03:13.341Z,101740.56
2019-02-04T13:05:47.091Z,101737.69
2019-02-04T13:08:17.405Z,101732.08
2019-02-04T13:10:46.796Z,101737.74
2019-02-04T13:13:18.799Z,101741.14
2019-02-04T13:15:48.445Z,101737.63
2019-02-04T13:18:18.013Z,101737.35
2019-02-04T13:20:47.812Z,101735.36
2019-02-04T13:23:17.146Z,101731.79
2019-02-04T13:25:46.736Z,101729.67
2019-02-04T13:28:16.425Z,101732.07
2019-02-04T13:30:45.725Z,101727.16
2019-02-04T13:33:15.344Z,101726.02
2019-02-04T13:35:44.666Z,101730.96
2019-02-04T13:38:14.024Z,101730.62
2019-02-04T13:40:44.533Z,101728.00
2019-02-04T13:43:14.070Z,101729.16
2019-02-04T13:45:43.674Z,101732.53
2019-02-04T13:48:13.640Z,101732.84
2019-02-04T13:50:43.239Z,101725.11
2019-02-04T13:53:12.580Z,101727.98
2019-02-04T13:55:42.246Z,101727.36
2019-02-04T13:58:11.541Z,101721.87
2019-02-04T14:00:40.870Z,101733.28
2019-02-04T14:03:10.927Z,101723.77
2019-02-04T14:05:40.278Z,101723.38
2019-02-04T14:08:09.604Z,101719.34
2019-02-04T14:10:46.078Z,101717.41
2019-02-04T14:13:14.825Z,101714.89
2019-02-04T14:15:44.330Z,101716.42
2019-02-04T14:18:13.659Z,101721.03
2019-02-04T14:20:42.974Z,101714.04
2019-02-04T14:23:12.550Z,101719.58
2019-02-04T14:25:41.907Z,101717.80
2019-02-04T14:28:11.456Z,101719.16
2019-02-04T14:30:41.023Z,101715.72
2019-02-04T14:33:10.357Z,101714.09
2019-02-04T14:35:39.650Z,101704.64
2019-02-04T14:38:08.957Z,101702.84
2019-02-04T14:40:38.538Z,101699.62
2019-02-04T14:43:16.034Z,101691.48
2019-02-04T14:46:23.077Z,101702.81
2019-02-04T14:49:09.245Z,101693.88
2019-02-04T14:52:00.496Z,101687.68
2019-02-04T14:55:00.377Z,101684.75
2019-02-04T14:57:46.446Z,101675.16
2019-02-04T15:00:35.064Z,101672.57
2019-02-04T15:03:29.427Z,101673.06
2019-02-04T15:06:24.680Z,101672.80
2019-02-04T15:09:16.335Z,101671.97
2019-02-04T15:12:02.102Z,101671.48
2019-02-04T15:14:38.962Z,101665.74
2019-02-04T15:17:13.480Z,101669.55
2019-02-04T15:20:21.991Z,101670.94
2019-02-04T15:22:59.437Z,101670.84
2019-02-04T15:26:06.688Z,101672.12
2019-02-04T15:28:46.544Z,101665.12
2019-02-04T15:31:21.046Z,101676.05
2019-02-04T15:34:09.766Z,101678.41
2019-02-04T15:36:49.459Z,101676.30
2019-02-04T15:39:32.364Z,101671.83
2019-02-04T15:42:32.318Z,101675.92
2019-02-04T15:45:21.179Z,101674.02
2019-02-04T15:47:55.448Z,101674.48
2019-02-04T15:51:05.906Z,101679.59
2019-02-04T15:53:35.522Z,101680.22
2019-02-04T15:56:05.705Z,101684.33
2019-02-04T15:58:35.312Z,101689.59
2019-02-04T16:01:05.073Z,101689.07
2019-02-04T16:03:34.637Z,101678.14
2019-02-04T16:06:03.970Z,101682.39
2019-02-04T16:08:33.574Z,101691.30
2019-02-04T16:11:03.144Z,101687.97
2019-02-04T16:13:32.744Z,101694.55
2019-02-04T16:16:02.376Z,101688.35
2019-02-04T16:18:31.948Z,101696.56
2019-02-04T16:21:01.543Z,101700.63
2019-02-04T16:23:30.954Z,101699.59
2019-02-04T16:26:00.913Z,101695.42
2019-02-04T16:28:30.522Z,101698.61
2019-02-04T16:30:59.858Z,101697.20
2019-02-04T16:33:29.467Z,101698.77
2019-02-04T16:35:59.200Z,101706.44
2019-02-04T16:38:28.529Z,101704.88
2019-02-04T16:40:58.152Z,101706.86
2019-02-04T16:43:27.749Z,101707.32
2019-02-04T16:45:57.170Z,101704.14
2019-02-04T16:48:26.547Z,101701.12
2019-02-04T16:51:09.569Z,101703.85
2019-02-04T16:53:27.451Z,101697.94
2019-02-04T16:55:56.986Z,101696.62
2019-02-04T16:58:26.593Z,101704.05
2019-02-04T17:00:55.938Z,101710.32
2019-02-04T17:03:25.275Z,101710.81
2019-02-04T17:05:54.607Z,101709.69
2019-02-04T17:08:23.914Z,101704.64
2019-02-04T17:10:53.710Z,101701.45
2019-02-04T17:13:23.306Z,101709.41
2019-02-04T17:15:52.878Z,101703.49
2019-02-04T17:18:22.496Z,101706.36
2019-02-04T17:20:51.822Z,101710.12
2019-02-04T17:23:22.695Z,101712.48
2019-02-04T17:25:52.417Z,101708.80
2019-02-04T17:28:21.738Z,101717.20
2019-02-04T17:30:51.053Z,101719.02
2019-02-04T17:33:20.366Z,101717.27
2019-02-04T17:35:49.972Z,101718.37
2019-02-04T17:38:19.568Z,101715.36
2019-02-04T17:40:49.220Z,101709.53
2019-02-04T17:43:18.817Z,101701.68
2019-02-04T17:45:48.145Z,101705.08
2019-02-04T17:48:17.735Z,101703.95
2019-02-04T17:50:47.481Z,101700.00
2019-02-04T17:53:17.450Z,101702.08
2019-02-04T17:55:46.838Z,101700.81
2019-02-04T17:58:17.029Z,101693.12
2019-02-04T18:00:50.976Z,101696.16
2019-02-04T18:03:20.659Z,101693.21
2019-02-04T18:05:50.118Z,101688.88
2019-02-04T18:08:19.447Z,101688.61
2019-02-04T18:10:49.053Z,101688.73
2019-02-04T18:13:18.414Z,101687.69
2019-02-04T18:15:48.167Z,101695.15
2019-02-04T18:18:17.765Z,101694.19
2019-02-04T18:20:47.460Z,101692.38
2019-02-04T18:23:17.117Z,101693.00
2019-02-04T18:25:46.782Z,101696.44
2019-02-04T18:28:16.146Z,101697.75
2019-02-04T18:30:45.530Z,101696.46
2019-02-04T18:33:15.221Z,101691.09
2019-02-04T18:35:45.052Z,101692.05
2019-02-04T18:38:14.650Z,101690.28
2019-02-04T18:40:44.715Z,101689.78
2019-02-04T18:43:14.409Z,101695.67
2019-02-04T18:45:44.004Z,101695.41
2019-02-04T18:48:13.623Z,101694.69
2019-02-04T18:50:43.640Z,101699.14
2019-02-04T18:53:13.006Z,101697.14
2019-02-04T18:55:42.604Z,101700.21
2019-02-04T18:58:12.238Z,101696.58
2019-02-04T19:00:41.837Z,101701.52
2019-02-04T19:03:17.316Z,101705.16
2019-02-04T19:05:42.813Z,101712.23
2019-02-04T19:08:12.147Z,101703.28
2019-02-04T19:10:41.477Z,101665.04
2019-02-04T19:13:11.177Z,101692.89
2019-02-04T19:15:41.058Z,101691.05
2019-02-04T19:18:14.657Z,101688.72
2019-02-04T19:20:44.492Z,101693.50
2019-02-04T19:23:13.824Z,101692.69
2019-02-04T19:25:43.168Z,101692.31
2019-02-04T19:28:12.783Z,101692.69
2019-02-04T19:30:49.873Z,101692.02
2019-02-04T19:33:19.492Z,101691.62
2019-02-04T19:35:49.099Z,101697.54
2019-02-04T19:38:18.504Z,101699.87
2019-02-04T19:40:47.851Z,101697.27
2019-02-04T19:43:17.753Z,101708.77
2019-02-04T19:45:47.101Z,101709.06
2019-02-04T19:48:16.771Z,101704.84
2019-02-04T19:50:46.416Z,101701.74
2019-02-04T19:53:15.813Z,101702.64
2019-02-04T19:55:45.173Z,101702.80
2019-02-04T19:58:15.072Z,101703.22
2019-02-04T20:00:44.727Z,101697.70
2019-02-04T20:03:14.826Z,101694.05
2019-02-04T20:05:44.448Z,101701.17
2019-02-04T20:08:13.830Z,101699.69
2019-02-04T20:10:43.173Z,101693.94
2019-02-04T20:13:13.927Z,101698.30
2019-02-04T20:15:43.562Z,101693.08
2019-02-04T20:18:12.905Z,101687.73
2019-02-04T20:20:42.729Z,101690.64
2019-02-04T20:23:12.324Z,101682.80
2019-02-04T20:25:41.650Z,101679.03
2019-02-04T20:28:11.328Z,101674.06
2019-02-04T20:30:46.193Z,101673.55
2019-02-04T20:33:15.359Z,101671.45
2019-02-04T20:35:45.071Z,101671.08
2019-02-04T20:38:14.688Z,101681.13
2019-02-04T20:40:44.412Z,101670.34
2019-02-04T20:43:13.768Z,101672.98
2019-02-04T20:45:43.467Z,101674.66
2019-02-04T20:48:14.154Z,101678.14
2019-02-04T20:50:49.662Z,101674.37
2019-02-04T20:53:19.294Z,101675.86
2019-02-04T20:55:49.023Z,101678.28
2019-02-04T20:58:18.630Z,101680.05
2019-02-04T21:00:48.320Z,101679.86
2019-02-04T21:03:17.950Z,101680.72
2019-02-04T21:05:47.577Z,101681.66
2019-02-04T21:08:17.204Z,101676.05
2019-02-04T21:10:46.807Z,101682.91
2019-02-04T21:13:16.186Z,101682.13
2019-02-04T21:15:45.823Z,101684.29
2019-02-04T21:18:15.532Z,101684.88
2019-02-04T21:20:45.119Z,101686.37
2019-02-04T21:23:15.137Z,101687.66
2019-02-04T21:25:44.504Z,101680.63
2019-02-04T21:28:13.890Z,101688.75
2019-02-04T21:30:43.629Z,101691.47
2019-02-04T21:33:13.268Z,101681.70
2019-02-04T21:35:42.609Z,101680.06
2019-02-04T21:38:12.691Z,101677.64
2019-02-04T21:40:42.331Z,101681.39
2019-02-04T21:43:11.733Z,101676.93
2019-02-04T21:45:41.321Z,101677.17
2019-02-04T21:48:10.912Z,101680.09
2019-02-04T21:50:50.061Z,101673.33
2019-02-04T21:53:19.461Z,101668.89
2019-02-04T21:55:48.787Z,101665.41
2019-02-04T21:58:18.248Z,101654.28
2019-02-04T22:00:47.882Z,101653.59
2019-02-04T22:03:17.466Z,101655.03
2019-02-04T22:05:47.484Z,101654.48
2019-02-04T22:08:16.781Z,101656.59
2019-02-04T22:10:46.105Z,101647.48
2019-02-04T22:13:15.762Z,101649.34
2019-02-04T22:15:45.370Z,101647.75
2019-02-04T22:18:14.724Z,101653.02
2019-02-04T22:20:44.213Z,101651.91
2019-02-04T22:23:13.639Z,101652.73
2019-02-04T22:25:43.342Z,101649.19
2019-02-04T22:28:12.946Z,101652.51
2019-02-04T22:30:42.832Z,101646.58
2019-02-04T22:33:12.155Z,101643.63
2019-02-04T22:35:41.593Z,101649.39
2019-02-04T22:38:11.094Z,101640.95
2019-02-04T22:40:40.727Z,101640.95
2019-02-04T22:43:10.088Z,101642.36
2019-02-04T22:45:39.441Z,101647.41
2019-02-04T22:48:09.149Z,101643.18
2019-02-04T22:50:38.512Z,101647.10
2019-02-04T22:53:08.261Z,101644.04
2019-02-04T22:55:37.575Z,101639.60
2019-02-04T22:58:07.172Z,101642.22
2019-02-04T23:00:49.168Z,101644.87
2019-02-04T23:03:23.025Z,101645.34
2019-02-04T23:05:52.611Z,101639.34
2019-02-04T23:08:21.967Z,101638.52
2019-02-04T23:10:51.560Z,101641.42
2019-02-04T23:13:20.922Z,101647.55
2019-02-04T23:15:50.587Z,101635.27
2019-02-04T23:18:20.290Z,101641.13
2019-02-04T23:20:49.990Z,101635.64
2019-02-04T23:23:19.747Z,101640.70
2019-02-04T23:25:49.102Z,101632.84
2019-02-04T23:28:18.715Z,101638.88
2019-02-04T23:30:49.051Z,101635.12
2019-02-04T23:33:18.758Z,101625.06
2019-02-04T23:35:48.475Z,101624.20
2019-02-04T23:38:17.849Z,101620.91
2019-02-04T23:40:47.575Z,101621.49
2019-02-04T23:43:17.192Z,101617.88
2019-02-04T23:45:46.534Z,101617.23
2019-02-04T23:48:16.186Z,101592.51
2019-02-04T23:50:45.571Z,101609.75
2019-02-04T23:53:14.906Z,101616.98
2019-02-04T23:55:54.366Z,101608.84
2019-02-04T23:58:15.662Z,101602.02
